Terminal Aerodrome Forecast
Issued by NWS

Home | Current Version | Previous Version | Graphics & Text | Print | Product List | Glossary Off
Versions: 1 2 3 4 5 6 7 8 9 10 11 12

000
FTUS43 KDDC 232335
TAFHYS
TAF
KHYS 232335Z 2400/2424 15010KT P6SM FEW250
     FM240700 18008KT P6SM SCT200
     FM241400 24010KT P6SM SCT090
     FM241500 26010KT P6SM SCT080
     FM241700 30018G27KT P6SM SCT200=

USA.gov is the U.S. government's official web portal to all federal, state and local government web resources and services.